Aérodrome :
LOGIN :

S'inscrire | Disclaimer

   EN    FR    IT 

 










Légende :    VFR   VFR Marginal   IFR   IFR Intensif   IFR Très Intensif
Visi : 
Plafond : 
>= 8 km
>= 3000ft
5 à 8 km
1000 à 3000 ft
1500m à 5 km
500 à 1000 ft
800 à 1500m
200 à 500 ft
< 800m
< 200 ft
Symboles :   Orages  Brouillard  Fortes neiges  Fortes précipitations  Vent > 20 kt
SIGMETs :   Divers  Orages  Givrage  Turbulence  Onde Orograph.  Cendres Volcan.






- Altitude de l'aérodrome : 341 ft


EPMO - Modlin

DERNIER METAR :
  • 190330Z 30005KT 4600 BR NSC 01/01 Q1025

METARs EXPIRÉS :
  • 190300Z 27004KT 3500 BR NSC 01/01 Q1025
  • 190230Z 24003KT 3200 BR NSC 02/02 Q1025
  • 190200Z 23003KT 4000 BR NSC 02/02 Q1025
  • 190130Z VRB02KT 1600 BR NSC 02/02 Q1024
  • 190100Z 25003KT 5000 BR NSC 03/03 Q1024

TAF TAF EPMO
Valide du 19 à 00h jusqu'au 20 à 00h UTC


182330Z 1900/1924 27003KT 4000 BR NSC
TEMPO 1900/1909 1500 BR
PROB40
TEMPO 1900/1909 0600 -DZ FG BKN002
BECMG 1909/1912 33010KT 7000
BECMG 1915/1918 VRB02KT 4000 BR
PROB40 1918/1924 2000 BR BKN003



MET'MAP, la Météo Aéronautique d'un coup d'oeil ! - Copyright ORBIFLY Décembre 2007 - Disclaimer

ORBIFLY MET'MAP TEAM :

Programmation & Développement : Alexandra Zaïnal
Sur une idée originale de : Baudouin d'Aumeries
Assistance à la programmation : Marc-Olivier Méhu
Soutien technique & logistique : Manuel Goepfert

Contact : metmap@orbifly.com




SOURCES & CREDITS :

   NOAA